sensor_id;sensor_type;location;lat;lon;timestamp;temperature;humidity
43671;DHT22;29267;50.906;7.248;2022-07-29T00:01:33;19.00;80.70
43671;DHT22;29267;50.906;7.248;2022-07-29T00:03:59;18.90;81.00
43671;DHT22;29267;50.906;7.248;2022-07-29T00:06:24;18.90;81.10
43671;DHT22;29267;50.906;7.248;2022-07-29T00:08:50;18.90;81.40
43671;DHT22;29267;50.906;7.248;2022-07-29T00:11:16;18.90;81.50
43671;DHT22;29267;50.906;7.248;2022-07-29T00:13:41;18.80;81.70
43671;DHT22;29267;50.906;7.248;2022-07-29T00:16:07;18.70;82.30
43671;DHT22;29267;50.906;7.248;2022-07-29T00:18:33;18.70;82.80
43671;DHT22;29267;50.906;7.248;2022-07-29T00:20:58;18.70;81.90
43671;DHT22;29267;50.906;7.248;2022-07-29T00:23:24;18.80;81.10
43671;DHT22;29267;50.906;7.248;2022-07-29T00:25:50;18.80;80.60
43671;DHT22;29267;50.906;7.248;2022-07-29T00:28:15;18.90;80.80
43671;DHT22;29267;50.906;7.248;2022-07-29T00:30:41;18.90;81.00
43671;DHT22;29267;50.906;7.248;2022-07-29T00:33:08;18.90;81.70
43671;DHT22;29267;50.906;7.248;2022-07-29T00:35:34;18.80;81.60
43671;DHT22;29267;50.906;7.248;2022-07-29T00:38:13;18.80;82.40
43671;DHT22;29267;50.906;7.248;2022-07-29T00:40:39;18.80;82.90
43671;DHT22;29267;50.906;7.248;2022-07-29T00:43:05;18.70;83.60
43671;DHT22;29267;50.906;7.248;2022-07-29T00:45:31;18.70;81.90
43671;DHT22;29267;50.906;7.248;2022-07-29T00:47:57;18.80;82.80
43671;DHT22;29267;50.906;7.248;2022-07-29T00:50:22;18.80;82.00
43671;DHT22;29267;50.906;7.248;2022-07-29T00:52:48;18.80;80.30
43671;DHT22;29267;50.906;7.248;2022-07-29T00:55:15;18.90;79.90
43671;DHT22;29267;50.906;7.248;2022-07-29T00:57:42;18.90;80.00
43671;DHT22;29267;50.906;7.248;2022-07-29T01:00:11;18.90;79.60
43671;DHT22;29267;50.906;7.248;2022-07-29T01:02:37;18.90;80.00
43671;DHT22;29267;50.906;7.248;2022-07-29T01:05:05;18.80;79.60
43671;DHT22;29267;50.906;7.248;2022-07-29T01:07:32;18.70;80.20
43671;DHT22;29267;50.906;7.248;2022-07-29T01:09:59;18.70;80.00
43671;DHT22;29267;50.906;7.248;2022-07-29T01:12:26;18.70;79.90
43671;DHT22;29267;50.906;7.248;2022-07-29T01:14:54;18.70;79.90
43671;DHT22;29267;50.906;7.248;2022-07-29T01:17:25;18.70;80.70
43671;DHT22;29267;50.906;7.248;2022-07-29T01:30:56;18.60;79.60
43671;DHT22;29267;50.906;7.248;2022-07-29T01:33:25;18.50;80.00
43671;DHT22;29267;50.906;7.248;2022-07-29T01:36:14;18.60;80.60
43671;DHT22;29267;50.906;7.248;2022-07-29T01:38:43;18.50;80.20
43671;DHT22;29267;50.906;7.248;2022-07-29T01:41:13;18.60;79.60
43671;DHT22;29267;50.906;7.248;2022-07-29T01:44:01;18.60;78.90
43671;DHT22;29267;50.906;7.248;2022-07-29T01:46:33;18.70;78.70
43671;DHT22;29267;50.906;7.248;2022-07-29T01:49:10;18.70;78.30
43671;DHT22;29267;50.906;7.248;2022-07-29T01:51:48;18.70;77.90
43671;DHT22;29267;50.906;7.248;2022-07-29T01:54:41;18.70;77.60
43671;DHT22;29267;50.906;7.248;2022-07-29T01:57:09;18.70;77.20
43671;DHT22;29267;50.906;7.248;2022-07-29T01:59:37;18.70;77.20
43671;DHT22;29267;50.906;7.248;2022-07-29T02:02:05;18.80;77.00
43671;DHT22;29267;50.906;7.248;2022-07-29T02:04:35;18.80;76.60
43671;DHT22;29267;50.906;7.248;2022-07-29T02:07:05;18.80;76.80
43671;DHT22;29267;50.906;7.248;2022-07-29T02:09:33;18.80;76.70
43671;DHT22;29267;50.906;7.248;2022-07-29T02:12:00;18.80;76.80
43671;DHT22;29267;50.906;7.248;2022-07-29T02:14:35;18.80;76.70
43671;DHT22;29267;50.906;7.248;2022-07-29T02:17:02;18.80;76.90
43671;DHT22;29267;50.906;7.248;2022-07-29T02:19:29;18.70;76.80
43671;DHT22;29267;50.906;7.248;2022-07-29T02:21:57;18.70;77.30
43671;DHT22;29267;50.906;7.248;2022-07-29T02:24:24;18.60;77.90
43671;DHT22;29267;50.906;7.248;2022-07-29T02:26:53;18.50;78.00
43671;DHT22;29267;50.906;7.248;2022-07-29T02:29:25;18.60;78.20
43671;DHT22;29267;50.906;7.248;2022-07-29T02:31:52;18.60;78.10
43671;DHT22;29267;50.906;7.248;2022-07-29T02:34:20;18.60;78.10
43671;DHT22;29267;50.906;7.248;2022-07-29T02:36:47;18.60;77.90
43671;DHT22;29267;50.906;7.248;2022-07-29T02:39:15;18.60;77.70
43671;DHT22;29267;50.906;7.248;2022-07-29T02:41:45;18.60;77.50
43671;DHT22;29267;50.906;7.248;2022-07-29T02:44:16;18.50;78.00
43671;DHT22;29267;50.906;7.248;2022-07-29T02:49:48;18.40;77.70
43671;DHT22;29267;50.906;7.248;2022-07-29T02:55:22;18.40;77.40
43671;DHT22;29267;50.906;7.248;2022-07-29T02:58:01;18.40;77.40
43671;DHT22;29267;50.906;7.248;2022-07-29T03:00:29;18.40;77.10
43671;DHT22;29267;50.906;7.248;2022-07-29T03:02:58;18.40;76.90
43671;DHT22;29267;50.906;7.248;2022-07-29T03:05:26;18.50;76.80
43671;DHT22;29267;50.906;7.248;2022-07-29T03:07:57;18.50;76.50
43671;DHT22;29267;50.906;7.248;2022-07-29T03:10:26;18.50;76.60
43671;DHT22;29267;50.906;7.248;2022-07-29T03:12:52;18.50;76.20
43671;DHT22;29267;50.906;7.248;2022-07-29T03:15:19;18.50;76.80
43671;DHT22;29267;50.906;7.248;2022-07-29T03:17:46;18.50;76.30
43671;DHT22;29267;50.906;7.248;2022-07-29T03:20:12;18.50;76.80
43671;DHT22;29267;50.906;7.248;2022-07-29T03:22:39;18.40;76.50
43671;DHT22;29267;50.906;7.248;2022-07-29T03:25:10;18.40;77.30
43671;DHT22;29267;50.906;7.248;2022-07-29T03:27:35;18.30;76.90
43671;DHT22;29267;50.906;7.248;2022-07-29T03:30:01;18.30;77.60
43671;DHT22;29267;50.906;7.248;2022-07-29T03:32:26;18.20;79.60
43671;DHT22;29267;50.906;7.248;2022-07-29T03:34:52;18.20;79.10
43671;DHT22;29267;50.906;7.248;2022-07-29T03:37:18;18.10;79.20
43671;DHT22;29267;50.906;7.248;2022-07-29T03:39:44;18.10;80.70
43671;DHT22;29267;50.906;7.248;2022-07-29T03:42:13;18.00;82.80
43671;DHT22;29267;50.906;7.248;2022-07-29T03:44:43;17.90;81.50
43671;DHT22;29267;50.906;7.248;2022-07-29T03:47:09;17.90;80.80
43671;DHT22;29267;50.906;7.248;2022-07-29T03:49:37;17.90;81.50
43671;DHT22;29267;50.906;7.248;2022-07-29T03:52:04;17.80;82.00
43671;DHT22;29267;50.906;7.248;2022-07-29T03:54:31;17.80;82.60
43671;DHT22;29267;50.906;7.248;2022-07-29T03:56:59;17.80;83.50
43671;DHT22;29267;50.906;7.248;2022-07-29T03:59:27;17.80;84.20
43671;DHT22;29267;50.906;7.248;2022-07-29T04:01:53;17.80;83.70
43671;DHT22;29267;50.906;7.248;2022-07-29T04:04:20;17.70;83.00
43671;DHT22;29267;50.906;7.248;2022-07-29T04:06:46;17.80;82.60
43671;DHT22;29267;50.906;7.248;2022-07-29T04:09:12;17.80;81.80
43671;DHT22;29267;50.906;7.248;2022-07-29T04:11:41;17.80;81.30
43671;DHT22;29267;50.906;7.248;2022-07-29T04:14:07;17.80;81.60
43671;DHT22;29267;50.906;7.248;2022-07-29T04:16:33;17.80;83.30
43671;DHT22;29267;50.906;7.248;2022-07-29T04:18:59;17.80;83.10
43671;DHT22;29267;50.906;7.248;2022-07-29T04:21:24;17.80;82.10
43671;DHT22;29267;50.906;7.248;2022-07-29T04:23:50;17.90;81.90
43671;DHT22;29267;50.906;7.248;2022-07-29T04:26:17;18.00;81.70
43671;DHT22;29267;50.906;7.248;2022-07-29T04:28:42;18.10;81.50
43671;DHT22;29267;50.906;7.248;2022-07-29T04:31:09;18.10;82.30
43671;DHT22;29267;50.906;7.248;2022-07-29T04:33:35;18.20;80.90
43671;DHT22;29267;50.906;7.248;2022-07-29T04:36:00;18.20;82.10
43671;DHT22;29267;50.906;7.248;2022-07-29T04:38:26;18.20;82.20
43671;DHT22;29267;50.906;7.248;2022-07-29T04:40:51;18.20;82.00
43671;DHT22;29267;50.906;7.248;2022-07-29T04:43:17;18.20;82.60
43671;DHT22;29267;50.906;7.248;2022-07-29T04:45:43;18.20;82.80
43671;DHT22;29267;50.906;7.248;2022-07-29T04:48:08;18.20;83.30
43671;DHT22;29267;50.906;7.248;2022-07-29T04:50:34;18.30;83.50
43671;DHT22;29267;50.906;7.248;2022-07-29T04:53:02;18.30;85.50
43671;DHT22;29267;50.906;7.248;2022-07-29T04:55:28;18.30;85.00
43671;DHT22;29267;50.906;7.248;2022-07-29T04:57:54;18.40;84.00
43671;DHT22;29267;50.906;7.248;2022-07-29T05:00:19;18.50;83.30
43671;DHT22;29267;50.906;7.248;2022-07-29T05:02:45;18.60;82.70
43671;DHT22;29267;50.906;7.248;2022-07-29T05:05:11;18.90;82.50
43671;DHT22;29267;50.906;7.248;2022-07-29T05:07:36;19.00;81.10
43671;DHT22;29267;50.906;7.248;2022-07-29T05:10:02;19.20;81.80
43671;DHT22;29267;50.906;7.248;2022-07-29T05:12:28;19.90;81.50
43671;DHT22;29267;50.906;7.248;2022-07-29T05:14:54;21.50;75.60
43671;DHT22;29267;50.906;7.248;2022-07-29T05:17:19;22.60;71.80
43671;DHT22;29267;50.906;7.248;2022-07-29T05:19:45;23.50;70.30
43671;DHT22;29267;50.906;7.248;2022-07-29T05:22:11;24.40;67.60
43671;DHT22;29267;50.906;7.248;2022-07-29T05:24:36;25.60;65.00
43671;DHT22;29267;50.906;7.248;2022-07-29T05:27:02;26.30;63.90
43671;DHT22;29267;50.906;7.248;2022-07-29T05:29:28;26.90;62.60
43671;DHT22;29267;50.906;7.248;2022-07-29T05:31:53;27.40;61.40
43671;DHT22;29267;50.906;7.248;2022-07-29T05:34:19;26.80;61.90
43671;DHT22;29267;50.906;7.248;2022-07-29T05:36:45;25.60;63.80
43671;DHT22;29267;50.906;7.248;2022-07-29T05:39:11;24.90;65.00
43671;DHT22;29267;50.906;7.248;2022-07-29T05:41:38;24.10;67.60
43671;DHT22;29267;50.906;7.248;2022-07-29T05:44:04;23.80;69.00
43671;DHT22;29267;50.906;7.248;2022-07-29T05:46:30;23.40;70.10
43671;DHT22;29267;50.906;7.248;2022-07-29T05:48:55;23.20;69.90
43671;DHT22;29267;50.906;7.248;2022-07-29T05:51:21;23.40;69.60
43671;DHT22;29267;50.906;7.248;2022-07-29T05:53:47;23.90;69.50
43671;DHT22;29267;50.906;7.248;2022-07-29T05:56:12;25.10;69.00
43671;DHT22;29267;50.906;7.248;2022-07-29T05:58:38;26.30;64.40
43671;DHT22;29267;50.906;7.248;2022-07-29T06:01:04;27.50;62.10
43671;DHT22;29267;50.906;7.248;2022-07-29T06:03:29;28.00;59.80
43671;DHT22;29267;50.906;7.248;2022-07-29T06:05:55;28.60;59.50
43671;DHT22;29267;50.906;7.248;2022-07-29T06:08:21;29.20;58.60
43671;DHT22;29267;50.906;7.248;2022-07-29T06:10:47;28.90;59.40
43671;DHT22;29267;50.906;7.248;2022-07-29T06:13:13;28.40;59.30
43671;DHT22;29267;50.906;7.248;2022-07-29T06:15:41;27.70;59.90
43671;DHT22;29267;50.906;7.248;2022-07-29T06:18:07;27.10;61.30
43671;DHT22;29267;50.906;7.248;2022-07-29T06:20:34;26.60;62.30
43671;DHT22;29267;50.906;7.248;2022-07-29T06:23:00;25.80;63.40
43671;DHT22;29267;50.906;7.248;2022-07-29T06:25:27;25.00;65.10
43671;DHT22;29267;50.906;7.248;2022-07-29T06:27:56;25.30;65.60
43671;DHT22;29267;50.906;7.248;2022-07-29T06:30:21;26.00;64.00
43671;DHT22;29267;50.906;7.248;2022-07-29T06:32:47;26.10;62.70
43671;DHT22;29267;50.906;7.248;2022-07-29T06:35:13;25.60;63.90
43671;DHT22;29267;50.906;7.248;2022-07-29T06:37:39;24.70;65.40
43671;DHT22;29267;50.906;7.248;2022-07-29T06:40:04;24.10;66.40
43671;DHT22;29267;50.906;7.248;2022-07-29T06:42:48;24.40;68.30
43671;DHT22;29267;50.906;7.248;2022-07-29T06:45:14;25.50;65.20
43671;DHT22;29267;50.906;7.248;2022-07-29T06:47:41;27.00;63.00
43671;DHT22;29267;50.906;7.248;2022-07-29T06:50:07;28.00;60.90
43671;DHT22;29267;50.906;7.248;2022-07-29T06:52:37;29.70;59.20
43671;DHT22;29267;50.906;7.248;2022-07-29T06:55:03;30.90;57.00
43671;DHT22;29267;50.906;7.248;2022-07-29T06:57:28;31.10;56.70
43671;DHT22;29267;50.906;7.248;2022-07-29T06:59:56;31.80;55.20
43671;DHT22;29267;50.906;7.248;2022-07-29T07:02:22;32.30;53.30
43671;DHT22;29267;50.906;7.248;2022-07-29T07:04:47;32.40;55.00
43671;DHT22;29267;50.906;7.248;2022-07-29T07:07:13;33.20;52.50
43671;DHT22;29267;50.906;7.248;2022-07-29T07:09:39;33.20;52.00
43671;DHT22;29267;50.906;7.248;2022-07-29T07:12:05;33.90;51.70
43671;DHT22;29267;50.906;7.248;2022-07-29T07:14:31;33.20;52.50
43671;DHT22;29267;50.906;7.248;2022-07-29T07:16:56;32.70;50.90
43671;DHT22;29267;50.906;7.248;2022-07-29T07:19:22;31.50;52.00
43671;DHT22;29267;50.906;7.248;2022-07-29T07:21:48;29.90;54.50
43671;DHT22;29267;50.906;7.248;2022-07-29T07:24:14;29.40;55.70
43671;DHT22;29267;50.906;7.248;2022-07-29T07:26:39;28.60;55.50
43671;DHT22;29267;50.906;7.248;2022-07-29T07:29:05;27.80;57.30
43671;DHT22;29267;50.906;7.248;2022-07-29T07:31:31;27.40;58.20
43671;DHT22;29267;50.906;7.248;2022-07-29T07:33:57;26.90;59.00
43671;DHT22;29267;50.906;7.248;2022-07-29T07:36:23;26.50;60.70
43671;DHT22;29267;50.906;7.248;2022-07-29T07:38:49;26.30;61.50
43671;DHT22;29267;50.906;7.248;2022-07-29T07:41:15;26.40;60.40
43671;DHT22;29267;50.906;7.248;2022-07-29T07:43:40;26.80;59.80
43671;DHT22;29267;50.906;7.248;2022-07-29T07:46:06;27.10;60.80
43671;DHT22;29267;50.906;7.248;2022-07-29T07:48:32;27.30;60.30
43671;DHT22;29267;50.906;7.248;2022-07-29T07:51:00;27.50;59.80
43671;DHT22;29267;50.906;7.248;2022-07-29T07:53:26;28.00;60.00
43671;DHT22;29267;50.906;7.248;2022-07-29T07:55:51;28.40;58.50
43671;DHT22;29267;50.906;7.248;2022-07-29T07:58:17;28.00;58.40
43671;DHT22;29267;50.906;7.248;2022-07-29T08:00:43;28.20;58.20
43671;DHT22;29267;50.906;7.248;2022-07-29T08:03:08;28.90;58.10
43671;DHT22;29267;50.906;7.248;2022-07-29T08:05:38;30.10;57.90
43671;DHT22;29267;50.906;7.248;2022-07-29T08:08:03;30.90;54.90
43671;DHT22;29267;50.906;7.248;2022-07-29T08:10:29;30.70;56.10
43671;DHT22;29267;50.906;7.248;2022-07-29T08:13:14;30.20;55.80
43671;DHT22;29267;50.906;7.248;2022-07-29T08:15:40;29.20;56.20
43671;DHT22;29267;50.906;7.248;2022-07-29T08:18:06;28.90;57.00
43671;DHT22;29267;50.906;7.248;2022-07-29T08:20:32;28.60;56.40
43671;DHT22;29267;50.906;7.248;2022-07-29T08:23:01;28.20;56.70
43671;DHT22;29267;50.906;7.248;2022-07-29T08:25:27;27.60;57.90
43671;DHT22;29267;50.906;7.248;2022-07-29T08:27:52;27.40;58.30
43671;DHT22;29267;50.906;7.248;2022-07-29T08:30:18;27.30;57.80
43671;DHT22;29267;50.906;7.248;2022-07-29T08:32:43;27.10;58.30
43671;DHT22;29267;50.906;7.248;2022-07-29T08:35:09;26.60;58.90
43671;DHT22;29267;50.906;7.248;2022-07-29T08:37:35;26.30;57.60
43671;DHT22;29267;50.906;7.248;2022-07-29T08:40:00;26.20;58.10
43671;DHT22;29267;50.906;7.248;2022-07-29T08:42:26;26.00;58.50
43671;DHT22;29267;50.906;7.248;2022-07-29T08:44:51;25.90;58.60
43671;DHT22;29267;50.906;7.248;2022-07-29T08:47:19;26.20;58.30
43671;DHT22;29267;50.906;7.248;2022-07-29T08:49:44;26.30;58.90
43671;DHT22;29267;50.906;7.248;2022-07-29T08:52:12;26.60;58.30
43671;DHT22;29267;50.906;7.248;2022-07-29T08:54:40;26.70;58.30
43671;DHT22;29267;50.906;7.248;2022-07-29T08:57:10;27.00;57.60
43671;DHT22;29267;50.906;7.248;2022-07-29T08:59:40;27.00;56.60
43671;DHT22;29267;50.906;7.248;2022-07-29T09:02:22;27.10;58.00
43671;DHT22;29267;50.906;7.248;2022-07-29T09:04:48;27.40;57.00
43671;DHT22;29267;50.906;7.248;2022-07-29T09:07:16;27.40;57.70
43671;DHT22;29267;50.906;7.248;2022-07-29T09:09:42;27.60;57.60
43671;DHT22;29267;50.906;7.248;2022-07-29T09:12:09;27.80;55.30
43671;DHT22;29267;50.906;7.248;2022-07-29T09:14:40;28.20;55.60
43671;DHT22;29267;50.906;7.248;2022-07-29T09:17:05;27.90;55.80
43671;DHT22;29267;50.906;7.248;2022-07-29T09:19:34;27.90;56.90
43671;DHT22;29267;50.906;7.248;2022-07-29T09:22:02;28.30;55.70
43671;DHT22;29267;50.906;7.248;2022-07-29T09:24:45;28.80;55.70
43671;DHT22;29267;50.906;7.248;2022-07-29T09:27:22;29.60;55.30
43671;DHT22;29267;50.906;7.248;2022-07-29T09:32:23;31.60;52.10
43671;DHT22;29267;50.906;7.248;2022-07-29T09:34:49;32.00;51.90
43671;DHT22;29267;50.906;7.248;2022-07-29T09:37:28;33.00;49.00
43671;DHT22;29267;50.906;7.248;2022-07-29T09:39:53;32.60;49.60
43671;DHT22;29267;50.906;7.248;2022-07-29T09:42:29;32.30;49.70
43671;DHT22;29267;50.906;7.248;2022-07-29T09:44:57;31.90;49.40
43671;DHT22;29267;50.906;7.248;2022-07-29T09:47:41;32.10;51.00
43671;DHT22;29267;50.906;7.248;2022-07-29T09:50:07;32.80;49.30
43671;DHT22;29267;50.906;7.248;2022-07-29T09:52:48;32.80;50.30
43671;DHT22;29267;50.906;7.248;2022-07-29T09:55:14;33.10;50.40
43671;DHT22;29267;50.906;7.248;2022-07-29T09:57:40;33.00;49.00
43671;DHT22;29267;50.906;7.248;2022-07-29T10:02:35;32.40;51.40
43671;DHT22;29267;50.906;7.248;2022-07-29T10:05:03;33.10;50.30
43671;DHT22;29267;50.906;7.248;2022-07-29T10:07:44;32.50;49.60
43671;DHT22;29267;50.906;7.248;2022-07-29T10:10:10;32.10;51.20
43671;DHT22;29267;50.906;7.248;2022-07-29T10:12:58;32.10;51.60
43671;DHT22;29267;50.906;7.248;2022-07-29T10:15:28;31.60;51.40
43671;DHT22;29267;50.906;7.248;2022-07-29T10:17:55;31.20;51.20
43671;DHT22;29267;50.906;7.248;2022-07-29T10:20:22;31.10;51.60
43671;DHT22;29267;50.906;7.248;2022-07-29T10:22:49;31.40;52.90
43671;DHT22;29267;50.906;7.248;2022-07-29T10:25:16;30.80;53.00
43671;DHT22;29267;50.906;7.248;2022-07-29T10:27:44;30.40;52.70
43671;DHT22;29267;50.906;7.248;2022-07-29T10:30:11;29.80;53.40
43671;DHT22;29267;50.906;7.248;2022-07-29T10:35:43;29.90;55.20
43671;DHT22;29267;50.906;7.248;2022-07-29T10:43:56;30.60;52.70
43671;DHT22;29267;50.906;7.248;2022-07-29T10:46:22;30.10;54.50
43671;DHT22;29267;50.906;7.248;2022-07-29T10:49:21;30.40;54.20
43671;DHT22;29267;50.906;7.248;2022-07-29T11:05:00;30.30;55.00
43671;DHT22;29267;50.906;7.248;2022-07-29T11:07:27;30.40;54.30
43671;DHT22;29267;50.906;7.248;2022-07-29T11:15:12;30.30;57.70
43671;DHT22;29267;50.906;7.248;2022-07-29T11:23:24;29.60;60.50
43671;DHT22;29267;50.906;7.248;2022-07-29T11:31:37;29.10;62.80
43671;DHT22;29267;50.906;7.248;2022-07-29T11:34:16;29.00;64.70
43671;DHT22;29267;50.906;7.248;2022-07-29T11:39:45;28.60;63.80
43671;DHT22;29267;50.906;7.248;2022-07-29T11:45:06;28.80;63.80
43671;DHT22;29267;50.906;7.248;2022-07-29T11:47:34;28.70;63.90
43671;DHT22;29267;50.906;7.248;2022-07-29T11:50:01;28.90;64.30
43671;DHT22;29267;50.906;7.248;2022-07-29T11:52:39;29.10;63.40
43671;DHT22;29267;50.906;7.248;2022-07-29T11:55:22;29.00;64.70
43671;DHT22;29267;50.906;7.248;2022-07-29T11:57:58;28.90;64.20
43671;DHT22;29267;50.906;7.248;2022-07-29T12:02:58;28.70;64.40
43671;DHT22;29267;50.906;7.248;2022-07-29T12:08:22;28.80;63.70
43671;DHT22;29267;50.906;7.248;2022-07-29T12:10:52;28.80;64.30
43671;DHT22;29267;50.906;7.248;2022-07-29T12:13:20;28.70;64.10
43671;DHT22;29267;50.906;7.248;2022-07-29T12:15:53;28.70;64.60
43671;DHT22;29267;50.906;7.248;2022-07-29T12:18:20;28.60;63.10
43671;DHT22;29267;50.906;7.248;2022-07-29T12:20:46;28.60;63.50
43671;DHT22;29267;50.906;7.248;2022-07-29T12:23:13;28.30;63.70
43671;DHT22;29267;50.906;7.248;2022-07-29T12:25:40;28.30;64.30
43671;DHT22;29267;50.906;7.248;2022-07-29T12:28:08;28.10;63.50
43671;DHT22;29267;50.906;7.248;2022-07-29T12:30:45;27.90;64.80
43671;DHT22;29267;50.906;7.248;2022-07-29T12:33:26;28.00;65.30
43671;DHT22;29267;50.906;7.248;2022-07-29T12:36:02;27.90;64.10
43671;DHT22;29267;50.906;7.248;2022-07-29T12:38:28;28.20;64.70
43671;DHT22;29267;50.906;7.248;2022-07-29T12:40:54;28.10;64.30
43671;DHT22;29267;50.906;7.248;2022-07-29T12:43:22;28.30;63.60
43671;DHT22;29267;50.906;7.248;2022-07-29T12:45:53;28.30;63.20
43671;DHT22;29267;50.906;7.248;2022-07-29T12:48:43;28.40;63.60
43671;DHT22;29267;50.906;7.248;2022-07-29T12:51:09;28.20;64.30
43671;DHT22;29267;50.906;7.248;2022-07-29T12:53:38;28.10;62.50
43671;DHT22;29267;50.906;7.248;2022-07-29T12:56:04;28.00;63.20
43671;DHT22;29267;50.906;7.248;2022-07-29T12:58:39;27.90;63.30
43671;DHT22;29267;50.906;7.248;2022-07-29T13:03:45;27.90;62.90
43671;DHT22;29267;50.906;7.248;2022-07-29T13:06:37;27.80;62.80
43671;DHT22;29267;50.906;7.248;2022-07-29T13:09:05;27.80;63.50
43671;DHT22;29267;50.906;7.248;2022-07-29T13:14:09;27.50;64.20
43671;DHT22;29267;50.906;7.248;2022-07-29T13:16:35;27.40;64.40
43671;DHT22;29267;50.906;7.248;2022-07-29T13:19:11;27.60;63.90
43671;DHT22;29267;50.906;7.248;2022-07-29T13:21:38;27.60;64.40
43671;DHT22;29267;50.906;7.248;2022-07-29T13:24:07;27.70;64.90
43671;DHT22;29267;50.906;7.248;2022-07-29T13:26:33;27.70;64.40
43671;DHT22;29267;50.906;7.248;2022-07-29T13:28:59;27.70;63.30
43671;DHT22;29267;50.906;7.248;2022-07-29T13:31:25;27.40;63.00
43671;DHT22;29267;50.906;7.248;2022-07-29T13:33:51;27.40;63.40
43671;DHT22;29267;50.906;7.248;2022-07-29T13:36:16;27.50;62.90
43671;DHT22;29267;50.906;7.248;2022-07-29T13:38:42;27.60;63.90
43671;DHT22;29267;50.906;7.248;2022-07-29T13:41:08;27.40;62.40
43671;DHT22;29267;50.906;7.248;2022-07-29T13:43:34;27.10;62.40
43671;DHT22;29267;50.906;7.248;2022-07-29T13:46:00;27.30;64.30
43671;DHT22;29267;50.906;7.248;2022-07-29T13:48:25;27.40;63.60
43671;DHT22;29267;50.906;7.248;2022-07-29T13:50:51;27.40;62.80
43671;DHT22;29267;50.906;7.248;2022-07-29T13:53:16;27.50;62.50
43671;DHT22;29267;50.906;7.248;2022-07-29T13:55:42;27.80;63.70
43671;DHT22;29267;50.906;7.248;2022-07-29T13:58:08;27.90;62.70
43671;DHT22;29267;50.906;7.248;2022-07-29T14:00:33;27.80;62.10
43671;DHT22;29267;50.906;7.248;2022-07-29T14:02:59;27.90;62.60
43671;DHT22;29267;50.906;7.248;2022-07-29T14:05:25;27.90;62.60
43671;DHT22;29267;50.906;7.248;2022-07-29T14:07:50;27.90;62.50
43671;DHT22;29267;50.906;7.248;2022-07-29T14:10:16;27.80;61.50
43671;DHT22;29267;50.906;7.248;2022-07-29T14:12:41;27.60;62.70
43671;DHT22;29267;50.906;7.248;2022-07-29T14:15:07;27.50;62.40
43671;DHT22;29267;50.906;7.248;2022-07-29T14:17:33;27.50;63.50
43671;DHT22;29267;50.906;7.248;2022-07-29T14:19:59;27.20;62.60
43671;DHT22;29267;50.906;7.248;2022-07-29T14:22:24;27.00;63.80
43671;DHT22;29267;50.906;7.248;2022-07-29T14:24:50;26.80;64.00
43671;DHT22;29267;50.906;7.248;2022-07-29T14:27:16;26.80;64.50
43671;DHT22;29267;50.906;7.248;2022-07-29T14:29:41;26.80;64.80
43671;DHT22;29267;50.906;7.248;2022-07-29T14:32:08;26.90;66.00
43671;DHT22;29267;50.906;7.248;2022-07-29T14:34:36;26.90;65.60
43671;DHT22;29267;50.906;7.248;2022-07-29T14:37:03;27.10;65.40
43671;DHT22;29267;50.906;7.248;2022-07-29T14:39:31;27.10;65.00
43671;DHT22;29267;50.906;7.248;2022-07-29T14:41:56;26.90;65.00
43671;DHT22;29267;50.906;7.248;2022-07-29T14:44:22;26.90;64.70
43671;DHT22;29267;50.906;7.248;2022-07-29T14:46:48;26.80;65.00
43671;DHT22;29267;50.906;7.248;2022-07-29T14:49:14;26.70;65.00
43671;DHT22;29267;50.906;7.248;2022-07-29T14:51:40;26.50;65.20
43671;DHT22;29267;50.906;7.248;2022-07-29T14:54:06;26.70;65.10
43671;DHT22;29267;50.906;7.248;2022-07-29T14:56:31;26.60;65.10
43671;DHT22;29267;50.906;7.248;2022-07-29T14:58:57;26.60;64.90
43671;DHT22;29267;50.906;7.248;2022-07-29T15:01:23;26.40;64.70
43671;DHT22;29267;50.906;7.248;2022-07-29T15:03:52;26.30;64.30
43671;DHT22;29267;50.906;7.248;2022-07-29T15:06:18;26.00;65.00
43671;DHT22;29267;50.906;7.248;2022-07-29T15:08:43;25.80;65.70
43671;DHT22;29267;50.906;7.248;2022-07-29T15:11:09;25.70;66.10
43671;DHT22;29267;50.906;7.248;2022-07-29T15:13:35;25.50;65.70
43671;DHT22;29267;50.906;7.248;2022-07-29T15:16:00;25.40;65.80
43671;DHT22;29267;50.906;7.248;2022-07-29T15:18:26;25.30;66.90
43671;DHT22;29267;50.906;7.248;2022-07-29T15:20:52;25.20;67.30
43671;DHT22;29267;50.906;7.248;2022-07-29T15:23:17;25.30;67.30
43671;DHT22;29267;50.906;7.248;2022-07-29T15:25:43;25.40;67.80
43671;DHT22;29267;50.906;7.248;2022-07-29T15:28:09;25.50;67.70
43671;DHT22;29267;50.906;7.248;2022-07-29T15:30:35;25.60;67.90
43671;DHT22;29267;50.906;7.248;2022-07-29T15:33:07;25.70;68.10
43671;DHT22;29267;50.906;7.248;2022-07-29T15:35:33;25.80;67.60
43671;DHT22;29267;50.906;7.248;2022-07-29T15:37:59;25.80;68.10
43671;DHT22;29267;50.906;7.248;2022-07-29T15:40:25;25.60;67.20
43671;DHT22;29267;50.906;7.248;2022-07-29T15:42:50;25.60;67.90
43671;DHT22;29267;50.906;7.248;2022-07-29T15:45:16;25.60;67.30
43671;DHT22;29267;50.906;7.248;2022-07-29T15:47:42;25.50;67.40
43671;DHT22;29267;50.906;7.248;2022-07-29T15:50:07;25.50;67.50
43671;DHT22;29267;50.906;7.248;2022-07-29T15:52:39;25.30;66.90
43671;DHT22;29267;50.906;7.248;2022-07-29T15:55:04;25.30;67.70
43671;DHT22;29267;50.906;7.248;2022-07-29T15:57:30;25.30;67.50
43671;DHT22;29267;50.906;7.248;2022-07-29T15:59:56;25.30;67.20
43671;DHT22;29267;50.906;7.248;2022-07-29T16:02:21;25.20;67.80
43671;DHT22;29267;50.906;7.248;2022-07-29T16:04:47;25.20;67.20
43671;DHT22;29267;50.906;7.248;2022-07-29T16:07:14;25.30;67.30
43671;DHT22;29267;50.906;7.248;2022-07-29T16:09:40;25.20;67.20
43671;DHT22;29267;50.906;7.248;2022-07-29T16:12:05;25.20;67.80
43671;DHT22;29267;50.906;7.248;2022-07-29T16:14:31;25.10;68.00
43671;DHT22;29267;50.906;7.248;2022-07-29T16:17:00;24.90;68.10
43671;DHT22;29267;50.906;7.248;2022-07-29T16:19:29;24.80;68.70
43671;DHT22;29267;50.906;7.248;2022-07-29T16:21:55;24.80;69.50
43671;DHT22;29267;50.906;7.248;2022-07-29T16:24:20;24.80;69.10
43671;DHT22;29267;50.906;7.248;2022-07-29T16:26:46;24.60;69.10
43671;DHT22;29267;50.906;7.248;2022-07-29T16:29:12;24.50;69.30
43671;DHT22;29267;50.906;7.248;2022-07-29T16:31:37;24.50;69.10
43671;DHT22;29267;50.906;7.248;2022-07-29T16:34:03;24.50;69.80
43671;DHT22;29267;50.906;7.248;2022-07-29T16:36:29;24.40;69.70
43671;DHT22;29267;50.906;7.248;2022-07-29T16:38:54;24.40;69.70
43671;DHT22;29267;50.906;7.248;2022-07-29T16:41:20;24.40;69.70
43671;DHT22;29267;50.906;7.248;2022-07-29T16:43:46;24.40;69.30
43671;DHT22;29267;50.906;7.248;2022-07-29T16:46:11;24.40;70.00
43671;DHT22;29267;50.906;7.248;2022-07-29T16:48:37;24.30;70.20
43671;DHT22;29267;50.906;7.248;2022-07-29T16:51:04;24.30;70.30